createdAt,value
2023-02-14T00:02:05.383Z,101951.44
2023-02-14T00:04:38.357Z,101943.28
2023-02-14T00:07:08.421Z,101952.69
2023-02-14T00:09:37.604Z,101947.72
2023-02-14T00:12:07.511Z,101943.44
2023-02-14T00:14:53.687Z,101949.66
2023-02-14T00:17:22.116Z,101945.66
2023-02-14T00:19:50.765Z,101946.63
2023-02-14T00:22:20.838Z,101939.06
2023-02-14T00:24:49.375Z,101932.84
2023-02-14T00:27:17.956Z,101955.88
2023-02-14T00:29:46.652Z,101939.88
2023-02-14T00:32:15.317Z,101947.31
2023-02-14T00:34:44.051Z,101955.44
2023-02-14T00:37:12.551Z,101946.75
2023-02-14T00:39:43.197Z,101953.50
2023-02-14T00:42:13.624Z,101958.50
2023-02-14T00:44:42.334Z,101947.34
2023-02-14T00:47:10.843Z,101951.72
2023-02-14T00:49:39.458Z,101948.28
2023-02-14T00:52:07.972Z,101939.75
2023-02-14T00:54:36.420Z,101948.00
2023-02-14T00:57:06.307Z,101943.47
2023-02-14T00:59:34.796Z,101938.50
2023-02-14T01:02:05.798Z,101927.34
2023-02-14T01:04:34.418Z,101946.34
2023-02-14T01:07:04.162Z,101934.34
2023-02-14T01:09:33.602Z,101926.78
2023-02-14T01:12:05.874Z,101930.34
2023-02-14T01:14:35.972Z,101931.59
2023-02-14T01:17:05.402Z,101923.63
2023-02-14T01:19:34.482Z,101939.72
2023-02-14T01:22:03.007Z,101929.25
2023-02-14T01:24:31.650Z,101938.06
2023-02-14T01:27:03.468Z,101914.66
2023-02-14T01:29:33.433Z,101953.13
2023-02-14T01:32:02.003Z,101945.25
2023-02-14T01:34:30.603Z,101937.78
2023-02-14T01:36:59.240Z,101944.69
2023-02-14T01:39:28.516Z,101928.13
2023-02-14T01:41:57.155Z,101936.97
2023-02-14T01:45:03.197Z,101941.78
2023-02-14T01:47:38.832Z,101940.13
2023-02-14T01:50:11.561Z,101939.44
2023-02-14T01:52:45.619Z,101937.09
2023-02-14T01:55:18.805Z,101943.28
2023-02-14T01:57:51.141Z,101936.38
2023-02-14T02:00:41.249Z,101935.84
2023-02-14T02:03:10.661Z,101946.19
2023-02-14T02:05:43.271Z,101940.25
2023-02-14T02:08:12.267Z,101943.84
2023-02-14T02:10:40.893Z,101952.78
2023-02-14T02:13:16.774Z,101944.34
2023-02-14T02:16:24.872Z,101952.91
2023-02-14T02:19:14.037Z,101962.13
2023-02-14T02:22:15.246Z,101950.00
2023-02-14T02:24:55.555Z,101988.03
2023-02-14T02:27:47.920Z,101943.38
2023-02-14T02:30:54.860Z,101941.59
2023-02-14T02:34:14.837Z,101922.97
2023-02-14T02:36:59.200Z,101912.91
2023-02-14T02:39:47.061Z,101935.50
2023-02-14T02:42:31.488Z,101929.19
2023-02-14T02:45:12.879Z,101942.78
2023-02-14T02:47:49.917Z,101942.41
2023-02-14T02:50:44.028Z,101943.34
2023-02-14T02:53:21.175Z,101940.06
2023-02-14T02:56:14.798Z,101935.91
2023-02-14T02:58:48.138Z,101932.63
2023-02-14T03:01:22.836Z,101927.66
2023-02-14T03:04:15.869Z,101915.66
2023-02-14T03:06:46.522Z,101935.50
2023-02-14T03:09:54.184Z,101928.03
2023-02-14T03:12:58.667Z,101926.25
2023-02-14T03:15:54.371Z,101929.97
2023-02-14T03:19:00.971Z,101929.97
2023-02-14T03:21:37.212Z,101934.75
2023-02-14T03:24:13.004Z,101933.81
2023-02-14T03:26:51.633Z,101931.44
2023-02-14T03:29:30.966Z,101937.50
2023-02-14T03:32:06.045Z,101948.94
2023-02-14T03:34:41.671Z,101935.03
2023-02-14T03:37:15.458Z,101954.28
2023-02-14T03:39:54.173Z,101945.75
2023-02-14T03:42:27.575Z,101948.38
2023-02-14T03:44:58.348Z,101978.22
2023-02-14T03:47:31.982Z,101951.25
2023-02-14T03:50:05.772Z,101921.91
2023-02-14T03:52:37.509Z,101940.06
2023-02-14T03:55:08.867Z,101943.66
2023-02-14T03:57:44.975Z,101938.56
2023-02-14T04:00:15.662Z,101952.47
2023-02-14T04:02:48.583Z,101937.88
2023-02-14T04:05:22.760Z,101940.63
2023-02-14T04:07:55.218Z,101947.66
2023-02-14T04:10:24.836Z,101939.34
2023-02-14T04:12:55.217Z,101953.13
2023-02-14T04:15:23.720Z,101948.00
2023-02-14T04:18:09.664Z,101939.34
2023-02-14T04:20:38.123Z,101952.81
2023-02-14T04:23:06.630Z,101947.69
2023-02-14T04:25:34.982Z,101947.69
2023-02-14T04:28:04.773Z,101945.22
2023-02-14T04:30:33.080Z,101949.75
2023-02-14T04:33:01.445Z,101948.94
2023-02-14T04:35:29.854Z,101955.94
2023-02-14T04:37:58.196Z,101955.28
2023-02-14T04:40:26.547Z,101950.16
2023-02-14T04:42:54.973Z,101959.78
2023-02-14T04:45:24.790Z,101955.53
2023-02-14T04:47:53.215Z,101956.47
2023-02-14T04:50:23.369Z,101953.16
2023-02-14T04:52:51.773Z,101953.16
2023-02-14T04:55:20.546Z,101961.97
2023-02-14T04:57:48.881Z,101960.28
2023-02-14T05:00:18.537Z,101947.38
2023-02-14T05:02:48.311Z,101956.19
2023-02-14T05:05:16.852Z,101977.16
2023-02-14T05:07:47.803Z,101964.09
2023-02-14T05:10:16.414Z,101958.03
2023-02-14T05:12:44.798Z,101994.78
2023-02-14T05:15:13.183Z,101954.84
2023-02-14T05:17:41.574Z,101947.97
2023-02-14T05:20:12.941Z,101943.00
2023-02-14T05:22:41.241Z,101951.56
2023-02-14T05:25:10.045Z,101949.19
2023-02-14T05:27:38.394Z,101948.38
2023-02-14T05:30:09.423Z,101948.47
2023-02-14T05:32:37.810Z,101940.78
2023-02-14T05:35:07.156Z,101946.13
2023-02-14T05:37:36.849Z,101944.47
2023-02-14T05:40:07.501Z,101937.72
2023-02-14T05:42:35.886Z,101935.09
2023-02-14T05:45:04.239Z,101969.78
2023-02-14T05:47:32.582Z,101945.69
2023-02-14T05:50:00.919Z,101955.31
2023-02-14T05:52:29.406Z,101946.78
2023-02-14T05:54:59.241Z,101947.59
2023-02-14T05:57:27.611Z,101945.94
2023-02-14T05:59:55.991Z,101954.75
2023-02-14T06:02:24.461Z,101964.25
2023-02-14T06:04:52.965Z,101954.84
2023-02-14T06:07:21.300Z,101947.16
2023-02-14T06:09:49.614Z,101948.94
2023-02-14T06:12:19.310Z,101953.34
2023-02-14T06:14:47.667Z,101957.88
2023-02-14T06:17:16.010Z,101951.81
2023-02-14T06:19:44.454Z,101960.63
2023-02-14T06:22:12.864Z,101951.91
2023-02-14T06:24:41.224Z,101955.50
2023-02-14T06:27:09.546Z,101953.84
2023-02-14T06:29:39.310Z,101957.44
2023-02-14T06:32:07.742Z,101953.13
2023-02-14T06:34:36.392Z,101951.47
2023-02-14T06:37:04.687Z,101950.66
2023-02-14T06:39:33.048Z,101956.72
2023-02-14T06:42:01.403Z,101960.28
2023-02-14T06:44:29.808Z,101968.13
2023-02-14T06:46:59.508Z,101965.53
2023-02-14T06:49:27.955Z,101966.47
2023-02-14T06:51:56.314Z,101970.84
2023-02-14T06:54:24.660Z,101976.06
2023-02-14T06:56:53.091Z,101974.44
2023-02-14T06:59:21.440Z,101982.25
2023-02-14T07:01:49.949Z,101986.66
2023-02-14T07:04:19.710Z,101989.41
2023-02-14T07:06:48.325Z,101999.97
2023-02-14T07:09:17.888Z,102000.94
2023-02-14T07:11:47.106Z,102006.16
2023-02-14T07:14:15.864Z,102000.94
2023-02-14T07:16:44.202Z,102002.59
2023-02-14T07:19:12.581Z,102002.59
2023-02-14T07:21:42.383Z,102004.38
2023-02-14T07:24:10.743Z,102004.50
2023-02-14T07:26:39.085Z,102006.28
2023-02-14T07:29:07.407Z,102011.63
2023-02-14T07:31:35.856Z,102005.59
2023-02-14T07:34:04.285Z,101997.84
2023-02-14T07:36:32.685Z,101995.25
2023-02-14T07:39:02.352Z,101995.38
2023-02-14T07:41:30.901Z,101992.78
2023-02-14T07:43:59.287Z,102011.19
2023-02-14T07:46:27.672Z,101996.44
2023-02-14T07:48:56.008Z,101989.56
2023-02-14T07:51:24.397Z,101982.69
2023-02-14T07:53:52.720Z,101981.88
2023-02-14T07:56:22.626Z,101989.81
2023-02-14T07:58:51.018Z,101980.19
2023-02-14T08:01:21.035Z,101989.81
2023-02-14T08:03:50.083Z,101988.19
2023-02-14T08:06:19.668Z,101985.56
2023-02-14T08:08:48.570Z,101982.94
2023-02-14T08:11:37.490Z,101983.78
2023-02-14T08:14:07.273Z,101977.00
2023-02-14T08:16:35.813Z,101984.84
2023-02-14T08:19:04.243Z,101986.53
2023-02-14T08:21:32.750Z,101978.69
2023-02-14T08:24:01.220Z,101977.81
2023-02-14T08:26:29.684Z,101971.53
2023-02-14T08:28:58.010Z,101980.09
2023-02-14T08:31:35.766Z,101975.69
2023-02-14T08:34:04.828Z,101985.91
2023-02-14T08:36:33.340Z,101965.69
2023-02-14T08:39:01.732Z,101978.63
2023-02-14T08:41:30.061Z,101979.31
2023-02-14T08:43:58.394Z,101976.47
2023-02-14T08:46:28.248Z,101967.66
2023-02-14T08:48:57.107Z,101977.88
2023-02-14T08:51:25.935Z,101973.22
2023-02-14T08:53:55.930Z,101976.66
2023-02-14T08:56:24.926Z,101966.91
2023-02-14T08:58:54.615Z,101976.28
2023-02-14T09:01:23.314Z,101971.66
2023-02-14T09:03:53.094Z,101967.00
2023-02-14T09:06:21.482Z,101972.78
2023-02-14T09:08:49.883Z,101967.28
2023-02-14T09:11:22.650Z,101960.97
2023-02-14T09:13:53.202Z,101973.66
2023-02-14T09:16:23.357Z,101971.75
2023-02-14T09:18:54.686Z,101969.00
2023-02-14T09:21:27.755Z,101968.75
2023-02-14T09:23:56.418Z,101968.34
2023-02-14T09:26:24.743Z,101959.47
2023-02-14T09:28:53.109Z,101953.16
2023-02-14T09:31:24.238Z,101951.22
2023-02-14T09:33:54.147Z,101944.91
2023-02-14T09:36:22.454Z,101944.53
2023-02-14T09:38:50.823Z,101946.88
2023-02-14T09:41:54.747Z,101946.63
2023-02-14T09:44:31.396Z,101947.91
2023-02-14T09:47:07.912Z,101933.59
2023-02-14T09:49:40.820Z,101939.41
2023-02-14T09:52:16.353Z,101936.38
2023-02-14T09:54:50.262Z,101943.00
2023-02-14T09:57:27.627Z,101930.47
2023-02-14T10:00:04.782Z,101938.78
2023-02-14T10:02:41.790Z,101937.66
2023-02-14T10:05:18.307Z,101938.38
2023-02-14T10:07:59.307Z,101932.72
2023-02-14T10:10:34.517Z,101920.91
2023-02-14T10:13:09.178Z,101928.47
2023-02-14T10:15:42.810Z,101926.41
2023-02-14T10:18:16.639Z,101919.81
2023-02-14T10:20:50.302Z,101922.28
2023-02-14T10:23:31.941Z,101922.84
2023-02-14T10:26:04.349Z,101930.31
2023-02-14T10:28:40.251Z,101929.09
2023-02-14T10:31:24.033Z,101924.53
2023-02-14T10:33:58.128Z,101906.91
2023-02-14T10:37:00.728Z,101927.69
2023-02-14T10:39:48.071Z,101917.09
2023-02-14T10:42:27.313Z,101920.28
2023-02-14T10:45:07.339Z,101914.22
2023-02-14T10:47:46.994Z,101910.63
2023-02-14T10:50:21.046Z,101901.97
2023-02-14T10:53:05.019Z,101897.53
2023-02-14T10:55:45.490Z,101895.59
2023-02-14T10:58:17.774Z,101890.09
2023-02-14T11:00:58.023Z,101887.34
2023-02-14T11:03:28.889Z,101900.84
2023-02-14T11:05:57.618Z,101902.38
2023-02-14T11:08:33.001Z,101881.41
2023-02-14T11:11:09.728Z,101873.13
2023-02-14T11:13:40.297Z,101860.88
2023-02-14T11:16:11.716Z,101884.03
2023-02-14T11:18:41.953Z,101882.09
2023-02-14T11:21:14.550Z,101887.88
2023-02-14T11:23:46.430Z,101877.13
2023-02-14T11:26:24.617Z,101876.88
2023-02-14T11:28:58.170Z,101868.84
2023-02-14T11:31:32.743Z,101865.13
2023-02-14T11:34:04.794Z,101860.56
2023-02-14T11:36:41.361Z,101860.44
2023-02-14T11:39:28.509Z,101857.81
2023-02-14T11:41:59.725Z,101850.50
2023-02-14T11:44:31.733Z,101856.41
2023-02-14T11:47:20.075Z,101847.59
2023-02-14T11:49:58.730Z,101844.72
2023-02-14T11:52:29.744Z,101839.84
2023-02-14T11:55:00.585Z,101854.47
2023-02-14T11:57:33.098Z,101836.81
2023-02-14T12:00:05.981Z,101831.28
2023-02-14T12:02:43.178Z,101827.41
2023-02-14T12:05:20.397Z,101824.66
2023-02-14T12:07:51.629Z,101826.28
2023-02-14T12:10:30.514Z,101824.34
2023-02-14T12:13:02.706Z,101819.50
2023-02-14T12:15:37.917Z,101815.78
2023-02-14T12:18:48.655Z,101813.28
2023-02-14T12:21:45.846Z,101808.75
2023-02-14T12:24:24.569Z,101814.53
2023-02-14T12:27:04.218Z,101797.00
2023-02-14T12:29:37.458Z,101795.88
2023-02-14T12:32:21.489Z,101793.94
2023-02-14T12:34:50.517Z,101794.47
2023-02-14T12:37:35.670Z,101784.78
2023-02-14T12:40:14.897Z,101766.16
2023-02-14T12:43:01.644Z,101779.09
2023-02-14T12:45:54.211Z,101779.63
2023-02-14T12:48:39.601Z,101775.91
2023-02-14T12:51:17.411Z,101771.19
2023-02-14T12:54:10.118Z,101772.19
2023-02-14T12:56:49.446Z,101774.63
2023-02-14T12:59:30.167Z,101774.22
2023-02-14T13:02:39.985Z,101771.44
2023-02-14T13:05:21.759Z,101771.16
2023-02-14T13:08:08.212Z,101760.50
2023-02-14T13:10:53.307Z,101763.00
2023-02-14T13:13:32.475Z,101772.50
2023-02-14T13:16:18.265Z,101750.53
2023-02-14T13:18:55.925Z,101751.22
2023-02-14T13:21:27.663Z,101745.97
2023-02-14T13:24:05.522Z,101749.41
2023-02-14T13:26:39.743Z,101750.09
2023-02-14T13:29:12.624Z,101748.97
2023-02-14T13:31:43.702Z,101748.97
2023-02-14T13:34:30.388Z,101745.38
2023-02-14T13:37:00.855Z,101744.41
2023-02-14T13:39:38.309Z,101732.13
2023-02-14T13:42:08.618Z,101745.06
2023-02-14T13:44:45.194Z,101734.56
2023-02-14T13:47:22.806Z,101738.88
2023-02-14T13:49:56.174Z,101735.09
2023-02-14T13:52:47.563Z,101744.78
2023-02-14T13:55:20.481Z,101740.50
2023-02-14T13:58:02.986Z,101735.41
2023-02-14T14:00:42.429Z,101733.75
2023-02-14T14:03:17.698Z,101740.13
2023-02-14T14:06:14.353Z,101736.84
2023-02-14T14:08:49.659Z,101732.41
2023-02-14T14:11:58.486Z,101730.91
2023-02-14T14:14:39.963Z,101729.94
2023-02-14T14:17:27.666Z,101727.44
2023-02-14T14:19:58.013Z,101734.34
2023-02-14T14:22:27.294Z,101727.16
2023-02-14T14:24:59.412Z,101729.63
2023-02-14T14:27:33.906Z,101718.19
2023-02-14T14:30:04.994Z,101719.97
2023-02-14T14:32:36.851Z,101718.84
2023-02-14T14:35:21.690Z,101722.16
2023-02-14T14:37:52.737Z,101712.63
2023-02-14T14:40:28.790Z,101713.16
2023-02-14T14:43:07.655Z,101713.00
2023-02-14T14:45:36.173Z,101709.41
2023-02-14T14:48:12.443Z,101706.78
2023-02-14T14:50:46.056Z,101722.25
2023-02-14T14:53:25.537Z,101704.69
2023-02-14T14:55:54.926Z,101707.19
2023-02-14T14:58:35.418Z,101704.28
2023-02-14T15:01:04.072Z,101698.03
2023-02-14T15:03:32.677Z,101704.94
2023-02-14T15:06:14.614Z,101696.91
2023-02-14T15:08:43.051Z,101692.31
2023-02-14T15:11:37.142Z,101686.09
2023-02-14T15:14:09.069Z,101686.41
2023-02-14T15:16:43.551Z,101686.41
2023-02-14T15:19:18.439Z,101682.66
2023-02-14T15:21:48.792Z,101680.03
2023-02-14T15:24:19.677Z,101680.72
2023-02-14T15:26:53.371Z,101662.34
2023-02-14T15:29:24.772Z,101677.25
2023-02-14T15:31:53.865Z,101670.66
2023-02-14T15:34:26.448Z,101672.84
2023-02-14T15:37:03.661Z,101678.09
2023-02-14T15:39:38.319Z,101674.63
2023-02-14T15:42:07.423Z,101684.28
2023-02-14T15:44:35.854Z,101670.22
2023-02-14T15:47:09.277Z,101663.44
2023-02-14T15:49:41.206Z,101668.69
2023-02-14T15:52:16.243Z,101665.78
2023-02-14T15:54:47.413Z,101671.03
2023-02-14T15:57:25.453Z,101664.13
2023-02-14T15:59:54.088Z,101671.84
2023-02-14T16:02:31.826Z,101677.09
2023-02-14T16:05:15.586Z,101671.03
2023-02-14T16:08:03.549Z,101669.53
2023-02-14T16:10:34.778Z,101665.09
2023-02-14T16:13:06.581Z,101669.53
2023-02-14T16:15:36.617Z,101673.94
2023-02-14T16:18:19.045Z,101670.50
2023-02-14T16:20:51.158Z,101671.50
2023-02-14T16:23:31.560Z,101660.31
2023-02-14T16:26:00.162Z,101664.75
2023-02-14T16:28:32.956Z,101671.78
2023-02-14T16:31:05.789Z,101664.91
2023-02-14T16:33:37.618Z,101677.03
2023-02-14T16:36:19.759Z,101671.78
2023-02-14T16:38:50.772Z,101654.53
2023-02-14T16:41:21.825Z,101669.28
2023-02-14T16:43:51.048Z,101672.78
2023-02-14T16:46:22.640Z,101671.91
2023-02-14T16:48:52.604Z,101669.28
2023-02-14T16:51:23.783Z,101670.44
2023-02-14T16:53:55.023Z,101668.78
2023-02-14T16:56:27.695Z,101669.63
2023-02-14T16:58:57.903Z,101671.28
2023-02-14T17:01:26.712Z,101671.41
2023-02-14T17:03:55.673Z,101673.06
2023-02-14T17:06:27.991Z,101686.31
2023-02-14T17:09:00.218Z,101686.50
2023-02-14T17:11:32.645Z,101689.13
2023-02-14T17:14:01.036Z,101689.13
2023-02-14T17:16:32.343Z,101690.91
2023-02-14T17:19:02.922Z,101695.19
2023-02-14T17:21:31.768Z,101693.53
2023-02-14T17:24:01.445Z,101706.66
2023-02-14T17:26:29.852Z,101697.00
2023-02-14T17:28:58.307Z,101704.16
2023-02-14T17:31:28.554Z,101709.41
2023-02-14T17:33:57.264Z,101704.44
2023-02-14T17:36:25.636Z,101707.22
2023-02-14T17:38:55.174Z,101704.75
2023-02-14T17:41:27.446Z,101710.31
2023-02-14T17:44:00.213Z,101699.00
2023-02-14T17:46:29.301Z,101710.31
2023-02-14T17:48:58.805Z,101703.53
2023-02-14T17:51:27.388Z,101697.47
2023-02-14T17:53:58.002Z,101711.59
2023-02-14T17:56:28.687Z,101701.75
2023-02-14T17:58:57.361Z,101697.47
2023-02-14T18:01:28.626Z,101687.97
2023-02-14T18:03:57.002Z,101701.09
2023-02-14T18:06:26.577Z,101689.59
2023-02-14T18:08:57.019Z,101694.16
2023-02-14T18:11:29.215Z,101688.25
2023-02-14T18:13:59.648Z,101691.69
2023-02-14T18:16:28.113Z,101683.00
2023-02-14T18:18:56.452Z,101685.78
2023-02-14T18:21:25.467Z,101687.56
2023-02-14T18:23:53.789Z,101677.38
2023-02-14T18:26:22.113Z,101678.34
2023-02-14T18:28:51.980Z,101682.25
2023-02-14T18:31:21.180Z,101678.00
2023-02-14T18:33:51.433Z,101673.16
2023-02-14T18:36:24.213Z,101676.78
2023-02-14T18:38:52.775Z,101662.47
2023-02-14T18:41:21.403Z,101669.06
2023-02-14T18:43:51.949Z,101662.16
2023-02-14T18:46:23.085Z,101652.63
2023-02-14T18:48:51.688Z,101664.94
2023-02-14T18:51:23.586Z,101651.97
2023-02-14T18:53:56.089Z,101652.94
2023-02-14T18:56:32.412Z,101668.66
2023-02-14T18:59:05.095Z,101648.84
2023-02-14T19:01:37.436Z,101651.59
2023-02-14T19:04:08.748Z,101643.72
2023-02-14T19:06:37.783Z,101642.06
2023-02-14T19:09:11.497Z,101638.75
2023-02-14T19:11:40.577Z,101636.13
2023-02-14T19:14:12.664Z,101638.09
2023-02-14T19:16:50.351Z,101639.06
2023-02-14T19:19:19.721Z,101644.31
2023-02-14T19:21:48.613Z,101640.03
2023-02-14T19:24:18.853Z,101645.44
2023-02-14T19:26:48.324Z,101650.53
2023-02-14T19:29:21.168Z,101640.03
2023-02-14T19:31:52.542Z,101641.69
2023-02-14T19:34:23.417Z,101641.69
2023-02-14T19:36:53.597Z,101633.00
2023-02-14T19:39:23.032Z,101632.16
2023-02-14T19:41:52.461Z,101620.88
2023-02-14T19:44:24.988Z,101626.78
2023-02-14T19:46:56.480Z,101628.56
2023-02-14T19:49:26.932Z,101623.66
2023-02-14T19:51:56.235Z,101625.00
2023-02-14T19:54:25.734Z,101608.56
2023-02-14T19:56:56.245Z,101620.03
2023-02-14T19:59:27.930Z,101614.97
2023-02-14T20:02:00.593Z,101621.97
2023-02-14T20:04:31.186Z,101616.72
2023-02-14T20:06:59.872Z,101608.22
2023-02-14T20:09:29.248Z,101611.81
2023-02-14T20:12:01.144Z,101604.75
2023-02-14T20:14:40.925Z,101605.59
2023-02-14T20:17:18.376Z,101609.19
2023-02-14T20:19:46.728Z,101606.56
2023-02-14T20:22:15.298Z,101595.69
2023-02-14T20:24:43.622Z,101594.56
2023-02-14T20:27:11.941Z,101602.28
2023-02-14T20:29:43.341Z,101597.19
2023-02-14T20:32:12.893Z,101593.75
2023-02-14T20:34:42.948Z,101594.41
2023-02-14T20:37:12.089Z,101592.78
2023-02-14T20:39:40.769Z,101590.97
2023-02-14T20:42:09.159Z,101593.75
2023-02-14T20:44:37.952Z,101582.44
2023-02-14T20:47:07.776Z,101584.22
2023-02-14T20:49:36.166Z,101568.47
2023-02-14T20:52:05.131Z,101571.28
2023-02-14T20:54:33.465Z,101565.22
2023-02-14T20:57:01.867Z,101562.72
2023-02-14T20:59:30.216Z,101568.81
2023-02-14T21:01:59.892Z,101556.81
2023-02-14T21:04:30.090Z,101559.56
2023-02-14T21:07:00.247Z,101565.78
2023-02-14T21:09:28.748Z,101564.97
2023-02-14T21:11:58.393Z,101561.66
2023-02-14T21:14:26.801Z,101567.06
2023-02-14T21:16:55.131Z,101565.44
2023-02-14T21:19:23.512Z,101549.69
2023-02-14T21:21:53.220Z,101541.03
2023-02-14T21:24:21.567Z,101548.03
2023-02-14T21:26:49.871Z,101542.78
2023-02-14T21:29:18.317Z,101560.19
2023-02-14T21:31:46.753Z,101552.31
2023-02-14T21:34:16.971Z,101551.50
2023-02-14T21:36:45.294Z,101550.66
2023-02-14T21:39:15.510Z,101545.41
2023-02-14T21:41:43.849Z,101532.47
2023-02-14T21:44:32.229Z,101544.59
2023-02-14T21:47:00.519Z,101543.13
2023-02-14T21:49:46.477Z,101541.44
2023-02-14T21:52:14.824Z,101546.84
2023-02-14T21:54:44.517Z,101548.66
2023-02-14T21:57:12.866Z,101536.50
2023-02-14T21:59:41.831Z,101545.22
2023-02-14T22:02:12.373Z,101538.16
2023-02-14T22:04:43.155Z,101545.22
2023-02-14T22:07:11.516Z,101536.50
2023-02-14T22:09:39.774Z,101534.84
2023-02-14T22:12:09.602Z,101529.78
2023-02-14T22:14:37.914Z,101531.41
2023-02-14T22:17:06.256Z,101534.84
2023-02-14T22:19:36.440Z,101535.03
2023-02-14T22:22:05.136Z,101534.84
2023-02-14T22:24:33.440Z,101526.47
2023-02-14T22:27:01.726Z,101529.09
2023-02-14T22:29:31.370Z,101523.84
2023-02-14T22:31:59.733Z,101516.97
2023-02-14T22:34:28.129Z,101519.75
2023-02-14T22:36:56.479Z,101525.81
2023-02-14T22:39:24.974Z,101521.53
2023-02-14T22:41:53.380Z,101523.31
2023-02-14T22:44:21.761Z,101521.69
2023-02-14T22:46:51.490Z,101518.25
2023-02-14T22:49:19.902Z,101527.91
2023-02-14T22:51:48.277Z,101519.06
2023-02-14T22:54:17.552Z,101521.00
2023-02-14T22:56:48.102Z,101513.81
2023-02-14T22:59:19.099Z,101508.75
2023-02-14T23:01:48.789Z,101509.84
2023-02-14T23:04:21.575Z,101509.69
2023-02-14T23:06:51.741Z,101510.69
2023-02-14T23:09:21.077Z,101512.31
2023-02-14T23:11:52.029Z,101509.69
2023-02-14T23:14:38.247Z,101511.50
2023-02-14T23:17:21.389Z,101503.09
2023-02-14T23:20:08.586Z,101505.88
2023-02-14T23:22:41.092Z,101514.84
2023-02-14T23:25:12.017Z,101513.34
2023-02-14T23:27:43.020Z,101515.16
2023-02-14T23:30:15.303Z,101512.69
2023-02-14T23:32:43.956Z,101519.72
2023-02-14T23:35:13.703Z,101510.50
2023-02-14T23:37:42.084Z,101509.97
2023-02-14T23:40:11.395Z,101518.81
2023-02-14T23:42:39.747Z,101515.53
2023-02-14T23:45:26.536Z,101519.09
2023-02-14T23:47:54.916Z,101522.69
2023-02-14T23:50:24.563Z,101511.56
2023-02-14T23:52:52.889Z,101512.50
2023-02-14T23:55:21.192Z,101512.66
2023-02-14T23:57:49.631Z,101507.72
